Time;durP1;ratioP1;P1;durP2;ratioP2;P2;SDS_P1;SDS_P2;PMS_P1;PMS_P2;Temp;Humidity;BMP_temperature;BMP_pressure;BME280_temperature;BME280_humidity;BME280_pressure;Samples;Min_cycle;Max_cycle;Signal;HPM_P1;HPM_P2
2023/06/15 00:02:03;;;;;;;5.47;2.47;;;19.50;99.90;;;;;;1915975;73;21202;-79
2023/06/15 00:04:56;;;;;;;4.85;2.72;;;19.50;99.90;;;;;;1903108;75;21112;-79
2023/06/15 00:07:47;;;;;;;4.55;2.33;;;19.50;99.90;;;;;;1909086;74;22375;-82
2023/06/15 00:15:56;;;;;;;5.17;2.90;;;19.20;99.90;;;;;;1927894;72;22664;-79
2023/06/15 00:18:47;;;;;;;3.08;2.77;;;19.20;99.90;;;;;;1915023;75;21094;-79
2023/06/15 00:21:41;;;;;;;4.65;2.70;;;19.10;99.90;;;;;;1897327;75;21661;-79
2023/06/15 00:24:31;;;;;;;4.17;2.77;;;18.90;99.90;;;;;;1909429;75;21197;-79
2023/06/15 00:27:22;;;;;;;6.10;3.00;;;18.70;99.90;;;;;;1900909;75;21147;-79
2023/06/15 00:32:54;;;;;;;5.25;3.10;;;18.50;99.90;;;;;;1950262;72;22343;-79
2023/06/15 00:35:46;;;;;;;4.55;2.60;;;18.50;99.90;;;;;;1916746;75;21600;-79
2023/06/15 00:38:37;;;;;;;4.25;2.70;;;18.40;99.90;;;;;;1923666;73;21168;-79
2023/06/15 00:44:07;;;;;;;6.53;2.98;;;18.40;99.90;;;;;;1944718;72;22137;-79
2023/06/15 00:47:00;;;;;;;4.28;2.90;;;18.30;99.90;;;;;;1930358;73;21151;-79
2023/06/15 00:49:52;;;;;;;5.12;2.60;;;18.40;99.90;;;;;;1916240;75;21068;-79
2023/06/15 00:52:46;;;;;;;3.77;2.72;;;18.50;99.90;;;;;;1938475;73;21146;-79
2023/06/15 00:58:18;;;;;;;4.85;3.00;;;18.60;99.90;;;;;;1930473;72;22170;-80
2023/06/15 01:03:54;;;;;;;6.45;3.35;;;18.70;99.90;;;;;;1945389;72;22181;-79
2023/06/15 01:06:51;;;;;;;5.62;3.60;;;18.70;99.90;;;;;;1920125;74;21155;-80
2023/06/15 01:12:21;;;;;;;6.78;3.20;;;18.70;99.90;;;;;;1937287;72;22283;-79
2023/06/15 01:15:14;;;;;;;5.58;3.02;;;18.60;99.90;;;;;;1885213;75;21225;-80
2023/06/15 01:18:07;;;;;;;6.67;2.90;;;18.50;99.90;;;;;;1900964;75;21143;-79
2023/06/15 01:23:40;;;;;;;3.85;2.85;;;18.50;99.90;;;;;;1945875;72;22288;-79
2023/06/15 01:26:33;;;;;;;4.60;2.85;;;18.50;99.90;;;;;;1916174;75;21235;-79
2023/06/15 01:29:26;;;;;;;3.85;2.80;;;18.60;99.90;;;;;;1888473;74;21125;-79
2023/06/15 01:34:57;;;;;;;6.58;3.05;;;18.40;99.90;;;;;;1932268;72;22184;-79
2023/06/15 01:37:48;;;;;;;5.17;3.33;;;18.20;99.90;;;;;;1900151;75;21129;-79
2023/06/15 01:40:42;;;;;;;6.33;2.95;;;18.20;99.90;;;;;;1907500;75;21090;-79
2023/06/15 01:43:35;;;;;;;5.15;3.25;;;18.30;99.90;;;;;;1890896;75;21111;-79
2023/06/15 01:49:06;;;;;;;2.98;2.77;;;18.30;99.90;;;;;;1938219;72;22190;-79
2023/06/15 01:51:57;;;;;;;3.85;3.25;;;18.20;99.90;;;;;;1887944;75;21107;-79
2023/06/15 01:54:48;;;;;;;4.95;2.90;;;18.00;99.90;;;;;;1884462;75;21094;-79
2023/06/15 01:57:41;;;;;;;4.53;3.00;;;17.90;99.90;;;;;;1892206;75;21577;-79
2023/06/15 02:03:11;;;;;;;4.22;3.02;;;17.80;99.90;;;;;;1935452;72;22189;-79
2023/06/15 02:08:42;;;;;;;4.40;3.15;;;17.70;99.90;;;;;;1937989;72;22200;-79
2023/06/15 02:11:33;;;;;;;5.08;2.83;;;17.60;99.90;;;;;;1895651;75;21117;-79
2023/06/15 02:14:25;;;;;;;4.25;3.22;;;17.60;99.90;;;;;;1893099;75;21564;-79
2023/06/15 02:19:59;;;;;;;6.40;3.55;;;17.60;99.90;;;;;;1932064;72;22118;-79
2023/06/15 02:22:52;;;;;;;4.78;3.40;;;17.60;99.90;;;;;;1919507;73;21121;-79
2023/06/15 02:28:27;;;;;;;3.95;3.05;;;17.60;99.90;;;;;;1941443;72;22585;-79
2023/06/15 02:31:19;;;;;;;5.58;3.27;;;17.60;99.90;;;;;;1930689;73;21113;-79
2023/06/15 02:34:11;;;;;;;4.08;3.40;;;17.70;99.90;;;;;;1916415;75;21159;-79
2023/06/15 02:37:02;;;;;;;4.03;3.37;;;17.60;99.90;;;;;;1932250;73;21073;-78
2023/06/15 02:42:35;;;;;;;6.08;3.30;;;17.50;99.90;;;;;;1926311;72;22181;-78
2023/06/15 02:48:06;;;;;;;3.22;2.92;;;17.50;99.90;;;;;;1940061;72;22196;-78
2023/06/15 02:50:57;;;;;;;3.87;3.00;;;17.50;99.90;;;;;;1925246;74;21194;-78
2023/06/15 02:53:49;;;;;;;3.87;3.37;;;17.50;99.90;;;;;;1931217;74;21039;-78
2023/06/15 02:56:41;;;;;;;5.60;3.17;;;17.50;99.90;;;;;;1871966;75;21106;-78
2023/06/15 02:59:34;;;;;;;5.03;3.50;;;17.50;99.90;;;;;;1920728;73;21079;-78
2023/06/15 03:05:10;;;;;;;4.72;2.90;;;17.50;99.90;;;;;;1956636;72;22166;-78
2023/06/15 03:13:22;;;;;;;5.10;3.50;;;17.30;99.90;;;;;;1940718;72;22158;-78
2023/06/15 03:18:53;;;;;;;4.12;3.05;;;17.30;99.90;;;;;;1931267;72;22169;-78
2023/06/15 03:21:47;;;;;;;4.10;3.10;;;17.30;99.90;;;;;;1891754;75;21191;-78
2023/06/15 03:24:41;;;;;;;7.70;3.83;;;17.30;99.90;;;;;;1891170;75;21098;-78
2023/06/15 03:27:33;;;;;;;4.22;3.33;;;17.30;99.90;;;;;;1885319;75;21102;-78
2023/06/15 03:30:27;;;;;;;4.55;3.55;;;17.30;99.90;;;;;;1892975;75;21679;-79
2023/06/15 03:33:21;;;;;;;3.45;3.15;;;17.20;99.90;;;;;;1899387;75;21159;-78
2023/06/15 03:38:51;;;;;;;6.72;3.22;;;17.10;99.90;;;;;;1941619;72;22253;-78
2023/06/15 03:41:43;;;;;;;5.15;3.27;;;17.10;99.90;;;;;;1906982;74;21677;-78
2023/06/15 03:44:36;;;;;;;5.03;3.55;;;17.00;99.90;;;;;;1884843;75;21167;-78
2023/06/15 03:47:28;;;;;;;6.12;3.62;;;17.00;99.90;;;;;;1918286;74;21172;-78
2023/06/15 03:52:59;;;;;;;5.62;4.00;;;16.80;99.90;;;;;;1929648;72;22150;-80
2023/06/15 03:55:50;;;;;;;7.87;3.30;;;16.80;99.90;;;;;;1906469;74;21187;-81
2023/06/15 03:58:42;;;;;;;4.90;3.65;;;16.90;99.90;;;;;;1902918;74;21128;-81
2023/06/15 04:04:14;;;;;;;4.03;3.20;;;16.80;99.90;;;;;;1958266;72;22243;-81
2023/06/15 04:07:08;;;;;;;7.12;3.45;;;16.80;99.90;;;;;;1930390;73;21086;-81
2023/06/15 04:10:02;;;;;;;7.35;3.62;;;16.80;99.90;;;;;;1924458;73;21115;-81
2023/06/15 04:12:54;;;;;;;6.10;3.50;;;16.70;99.90;;;;;;1916386;75;21081;-80
2023/06/15 04:18:25;;;;;;;5.08;3.83;;;16.60;99.90;;;;;;1951602;72;22632;-80
2023/06/15 04:23:56;;;;;;;6.08;4.50;;;16.60;99.90;;;;;;1932552;72;22185;-80
2023/06/15 04:26:47;;;;;;;8.83;4.40;;;16.60;99.90;;;;;;1892475;75;21120;-80
2023/06/15 04:29:45;;;;;;;7.40;4.30;;;16.80;99.90;;;;;;1897774;73;21102;-80
2023/06/15 04:35:16;;;;;;;6.95;4.12;;;16.90;99.90;;;;;;1936076;72;22471;-80
2023/06/15 04:38:06;;;;;;;4.67;4.00;;;16.90;99.90;;;;;;1876250;75;21597;-82
2023/06/15 04:40:58;;;;;;;6.37;4.05;;;17.00;99.90;;;;;;1880213;75;21105;-80
2023/06/15 04:43:51;;;;;;;4.87;3.65;;;17.00;99.90;;;;;;1890989;75;21174;-81
2023/06/15 04:46:42;;;;;;;6.78;3.75;;;17.10;99.90;;;;;;1881820;75;21160;-81
2023/06/15 04:49:34;;;;;;;3.85;3.35;;;17.10;99.90;;;;;;1890517;75;21090;-80
2023/06/15 04:52:26;;;;;;;5.50;3.62;;;17.10;99.90;;;;;;1878763;75;21507;-80
2023/06/15 04:55:17;;;;;;;6.08;3.62;;;17.10;99.90;;;;;;1893242;75;21216;-80
2023/06/15 05:00:48;;;;;;;6.83;4.33;;;17.30;99.90;;;;;;1943482;72;22585;-80
2023/06/15 05:03:40;;;;;;;7.67;4.33;;;17.30;99.90;;;;;;1928820;73;21102;-80
2023/06/15 05:09:10;;;;;;;6.17;4.47;;;17.20;99.90;;;;;;1950592;72;22306;-81
2023/06/15 05:12:02;;;;;;;8.38;4.47;;;17.30;99.90;;;;;;1937240;73;21138;-81
2023/06/15 05:14:54;;;;;;;5.62;4.47;;;17.40;99.90;;;;;;1922069;73;21159;-80
2023/06/15 05:20:27;;;;;;;6.28;4.72;;;17.50;99.90;;;;;;1932941;72;22228;-80
2023/06/15 05:23:19;;;;;;;7.15;4.20;;;17.50;99.90;;;;;;1909926;74;21127;-80
2023/06/15 05:26:12;;;;;;;7.42;4.10;;;17.60;99.90;;;;;;1905225;74;21131;-81
2023/06/15 05:29:06;;;;;;;6.20;4.58;;;17.60;99.90;;;;;;1843096;77;21183;-85
2023/06/15 05:31:59;;;;;;;8.83;4.35;;;17.60;99.90;;;;;;1884898;75;21099;-82
2023/06/15 05:34:53;;;;;;;7.05;4.25;;;17.70;99.90;;;;;;1897030;74;21087;-82
2023/06/15 05:37:44;;;;;;;5.28;4.30;;;17.90;99.90;;;;;;1899263;74;21143;-81
2023/06/15 05:43:13;;;;;;;8.00;4.70;;;17.90;99.90;;;;;;1934992;72;22766;-81
2023/06/15 05:46:05;;;;;;;6.22;4.50;;;17.90;99.90;;;;;;1928169;73;21131;-81
2023/06/15 05:48:57;;;;;;;6.72;5.10;;;18.00;99.90;;;;;;1905587;75;21562;-82
2023/06/15 05:54:32;;;;;;;4.35;3.95;;;18.10;99.90;;;;;;1959567;72;22178;-81
2023/06/15 05:57:25;;;;;;;6.78;4.50;;;18.10;99.90;;;;;;1929047;74;21595;-82
2023/06/15 06:02:58;;;;;;;6.28;4.62;;;18.30;99.90;;;;;;1941734;72;22232;-81
2023/06/15 06:05:52;;;;;;;8.90;4.37;;;18.30;99.90;;;;;;1886309;75;21172;-81
2023/06/15 06:08:43;;;;;;;6.03;4.17;;;18.40;99.90;;;;;;1888715;75;21095;-81
2023/06/15 06:11:36;;;;;;;7.05;3.90;;;18.60;99.90;;;;;;1898552;75;21122;-82
2023/06/15 06:17:08;;;;;;;6.37;3.72;;;18.80;99.90;;;;;;1927288;72;22137;-81
2023/06/15 06:20:05;;;;;;;4.87;3.90;;;18.90;99.90;;;;;;1883920;75;21157;-82
2023/06/15 06:22:56;;;;;;;5.00;3.98;;;18.90;99.90;;;;;;1883947;75;21116;-78
2023/06/15 06:28:29;;;;;;;4.47;3.75;;;19.10;99.90;;;;;;1936178;72;22275;-84
2023/06/15 06:31:23;;;;;;;5.20;4.35;;;19.10;99.90;;;;;;1902661;73;21133;-82
2023/06/15 06:34:14;;;;;;;7.55;4.30;;;19.20;99.90;;;;;;1889098;75;21113;-82
2023/06/15 06:37:06;;;;;;;5.83;4.25;;;19.20;99.90;;;;;;1903721;75;21143;-80
2023/06/15 06:39:57;;;;;;;7.75;4.55;;;19.30;99.90;;;;;;1847578;76;21117;-80
2023/06/15 06:42:49;;;;;;;9.83;5.28;;;19.30;99.90;;;;;;1898318;75;21107;-80
2023/06/15 06:48:20;;;;;;;6.78;3.85;;;19.40;99.90;;;;;;1938651;72;22314;-79
2023/06/15 06:53:51;;;;;;;8.73;4.40;;;19.50;99.90;;;;;;1944002;72;22223;-81
2023/06/15 06:59:20;;;;;;;9.08;4.15;;;19.60;99.90;;;;;;1933388;72;22196;-79
2023/06/15 07:04:54;;;;;;;6.72;3.87;;;19.70;99.90;;;;;;1938717;72;22205;-79
2023/06/15 07:07:46;;;;;;;8.85;4.83;;;19.60;99.90;;;;;;1883130;75;21133;-79
2023/06/15 07:13:17;;;;;;;5.00;3.98;;;19.70;99.90;;;;;;1952029;72;22158;-80
2023/06/15 07:18:51;;;;;;;6.60;4.28;;;19.70;99.90;;;;;;1927830;72;22225;-79
2023/06/15 07:24:22;;;;;;;7.55;4.15;;;19.80;99.90;;;;;;1935401;72;22281;-79
2023/06/15 07:29:54;;;;;;;8.53;4.12;;;19.80;99.90;;;;;;1929812;72;22256;-79
2023/06/15 07:32:45;;;;;;;6.37;3.62;;;19.80;99.90;;;;;;1898016;75;21167;-79
2023/06/15 07:38:15;;;;;;;4.97;4.05;;;19.70;99.90;;;;;;1928872;72;22439;-80
2023/06/15 07:41:07;;;;;;;4.62;3.77;;;19.70;99.90;;;;;;1895745;75;21179;-79
2023/06/15 07:43:59;;;;;;;7.33;3.62;;;19.90;99.90;;;;;;1892968;75;21192;-79
2023/06/15 07:49:33;;;;;;;6.22;3.62;;;20.00;99.90;;;;;;1942505;72;22205;-80
2023/06/15 07:52:26;;;;;;;4.45;3.55;;;20.00;99.90;;;;;;1926240;74;21168;-80
2023/06/15 07:58:02;;;;;;;6.25;3.75;;;20.00;99.90;;;;;;1942898;72;22298;-80
2023/06/15 08:00:53;;;;;;;6.37;4.20;;;20.10;99.90;;;;;;1907997;75;21175;-80
2023/06/15 08:03:45;;;;;;;7.03;3.95;;;20.10;99.90;;;;;;1887045;75;21102;-80
2023/06/15 08:09:17;;;;;;;5.45;3.80;;;20.30;99.90;;;;;;1971578;72;22142;-79
2023/06/15 08:12:11;;;;;;;6.78;3.87;;;20.40;99.90;;;;;;1942057;73;21220;-79
2023/06/15 08:15:03;;;;;;;4.60;3.85;;;20.60;99.90;;;;;;1933865;73;21059;-79
2023/06/15 08:20:33;;;;;;;5.42;4.00;;;20.80;99.90;;;;;;1910414;72;22263;-79
2023/06/15 08:23:25;;;;;;;5.58;3.90;;;20.80;99.90;;;;;;1875204;74;21176;-79
2023/06/15 08:28:56;;;;;;;5.72;4.03;;;20.80;99.90;;;;;;1942965;72;22312;-80
2023/06/15 08:31:50;;;;;;;6.45;3.95;;;21.00;99.90;;;;;;1925711;73;21355;-79
2023/06/15 08:34:42;;;;;;;6.85;4.55;;;21.10;99.90;;;;;;1942082;73;21099;-79
2023/06/15 08:37:33;;;;;;;5.70;4.28;;;21.20;99.90;;;;;;1927312;73;21094;-80
2023/06/15 08:43:06;;;;;;;6.20;3.90;;;21.30;99.90;;;;;;1943066;72;22272;-80
2023/06/15 08:45:59;;;;;;;8.33;4.35;;;21.30;99.90;;;;;;1937857;73;21171;-80
2023/06/15 08:48:53;;;;;;;7.33;4.03;;;21.40;99.90;;;;;;1918085;73;21105;-80
2023/06/15 08:51:46;;;;;;;6.90;4.17;;;21.40;99.90;;;;;;1933375;73;21575;-80
2023/06/15 08:57:18;;;;;;;11.05;4.30;;;21.60;99.90;;;;;;1943649;72;22616;-80
2023/06/15 09:00:11;;;;;;;6.12;3.80;;;21.70;99.90;;;;;;1903797;74;21082;-80
2023/06/15 09:03:06;;;;;;;3.95;3.52;;;21.80;99.90;;;;;;1913972;75;21214;-80
2023/06/15 09:05:58;;;;;;;6.60;3.60;;;21.90;99.90;;;;;;1903932;75;21122;-80
2023/06/15 09:08:51;;;;;;;4.85;3.50;;;22.00;99.90;;;;;;1903940;74;21084;-80
2023/06/15 09:11:45;;;;;;;8.03;4.05;;;22.20;99.90;;;;;;1895378;75;21095;-80
2023/06/15 09:14:41;;;;;;;4.80;3.90;;;22.20;99.90;;;;;;1918231;73;21098;-80
2023/06/15 09:17:33;;;;;;;6.37;3.92;;;22.30;99.90;;;;;;1897327;75;21185;-81
2023/06/15 09:20:25;;;;;;;7.17;3.83;;;22.40;99.90;;;;;;1877126;75;21506;-80
2023/06/15 09:23:20;;;;;;;4.75;3.98;;;22.50;99.90;;;;;;1907390;75;21129;-80
2023/06/15 09:26:22;;;;;;;5.47;4.28;;;22.60;99.90;;;;;;1903916;75;21129;-81
2023/06/15 09:29:13;;;;;;;7.20;3.65;;;22.60;99.90;;;;;;1902293;75;21087;-82
2023/06/15 09:32:06;;;;;;;6.70;4.30;;;22.80;99.90;;;;;;1908593;74;21142;-81
2023/06/15 09:35:03;;;;;;;4.67;4.28;;;22.90;99.90;;;;;;1913825;75;21138;-81
2023/06/15 09:37:56;;;;;;;6.33;4.05;;;23.00;99.90;;;;;;1910411;75;21142;-82
2023/06/15 09:43:33;;;;;;;8.35;4.45;;;23.30;99.90;;;;;;1939816;72;22287;-81
2023/06/15 09:46:25;;;;;;;6.53;4.08;;;23.40;99.90;;;;;;1890614;75;21041;-82
2023/06/15 09:49:23;;;;;;;9.68;4.40;;;23.50;99.90;;;;;;1885755;75;21126;-81
2023/06/15 09:52:14;;;;;;;8.13;4.40;;;23.60;99.90;;;;;;1912450;75;21087;-81
2023/06/15 09:55:10;;;;;;;7.70;4.45;;;23.70;99.90;;;;;;1892223;75;21134;-81
2023/06/15 09:58:02;;;;;;;5.95;4.12;;;23.90;99.90;;;;;;1883659;75;21190;-82
2023/06/15 10:00:57;;;;;;;5.97;4.17;;;24.00;99.90;;;;;;1891704;75;21687;-81
2023/06/15 10:03:55;;;;;;;5.40;3.90;;;24.10;99.90;;;;;;1890877;75;21108;-81
2023/06/15 10:06:49;;;;;;;5.03;4.15;;;24.20;99.90;;;;;;1905551;75;21582;-82
2023/06/15 10:09:45;;;;;;;5.17;4.28;;;24.40;99.90;;;;;;1901212;75;21102;-81
2023/06/15 10:12:39;;;;;;;7.15;4.55;;;24.50;99.90;;;;;;1896578;75;21148;-82
2023/06/15 10:15:33;;;;;;;6.60;4.22;;;24.60;99.90;;;;;;1891186;75;21190;-82
2023/06/15 10:18:27;;;;;;;9.35;4.60;;;24.70;99.90;;;;;;1905827;75;21126;-82
2023/06/15 10:21:21;;;;;;;7.83;5.42;;;24.70;99.90;;;;;;1904347;75;21155;-82
2023/06/15 10:24:15;;;;;;;5.25;4.40;;;24.70;99.90;;;;;;1900167;75;21126;-82
2023/06/15 10:27:08;;;;;;;5.45;3.90;;;24.80;99.90;;;;;;1920297;74;21581;-82
2023/06/15 10:30:06;;;;;;;5.53;4.00;;;25.00;99.90;;;;;;1913365;75;21739;-82
2023/06/15 10:33:01;;;;;;;5.90;3.90;;;25.10;99.90;;;;;;1890813;75;21577;-82
2023/06/15 10:35:57;;;;;;;10.38;4.30;;;25.20;99.90;;;;;;1896061;75;21114;-82
2023/06/15 10:41:30;;;;;;;9.23;4.03;;;25.40;99.90;;;;;;1948482;72;22178;-82
2023/06/15 10:44:21;;;;;;;6.85;4.10;;;25.50;99.90;;;;;;1906115;75;21099;-82
2023/06/15 10:47:15;;;;;;;5.85;3.35;;;25.50;99.90;;;;;;1903834;75;21140;-82
2023/06/15 10:52:53;;;;;;;7.47;3.80;;;25.70;99.90;;;;;;1948323;72;22102;-82
2023/06/15 10:55:49;;;;;;;6.05;3.62;;;25.80;99.90;;;;;;1906047;75;21158;-82
2023/06/15 11:01:35;;;;;;;6.10;4.20;;;26.10;99.90;;;;;;1924981;72;28178;-82
2023/06/15 11:04:33;;;;;;;4.97;3.80;;;26.30;99.90;;;;;;1927183;73;21127;-82
2023/06/15 11:07:30;;;;;;;5.03;3.95;;;26.30;99.90;;;;;;1921303;73;21148;-84
2023/06/15 11:10:25;;;;;;;4.62;3.58;;;26.40;99.90;;;;;;1859295;76;21113;-84
2023/06/15 11:13:25;;;;;;;4.83;3.98;;;26.30;99.90;;;;;;1916267;73;21216;-84
2023/06/15 11:16:17;;;;;;;6.85;3.90;;;26.40;99.90;;;;;;1922032;73;21164;-84
2023/06/15 11:19:28;;;;;;;6.92;4.33;;;26.50;99.90;;;;;;1916502;75;21483;-84
2023/06/15 11:22:25;;;;;;;8.38;4.08;;;26.50;99.90;;;;;;1916652;75;21100;-84
2023/06/15 11:25:15;;;;;;;7.05;4.60;;;26.50;99.90;;;;;;1916718;75;21424;-84
2023/06/15 11:28:07;;;;;;;5.65;4.10;;;26.60;99.90;;;;;;1916597;75;21129;-84
2023/06/15 11:31:02;;;;;;;4.25;3.62;;;26.60;99.90;;;;;;1916704;75;21164;-84
2023/06/15 11:33:54;;;;;;;5.35;3.83;;;26.60;99.00;;;;;;1927413;74;21082;-85
2023/06/15 11:36:45;;;;;;;4.20;3.08;;;26.80;99.70;;;;;;1916673;75;21159;-85
2023/06/15 11:39:36;;;;;;;5.10;3.85;;;26.80;96.40;;;;;;1916658;75;21566;-84
2023/06/15 11:42:29;;;;;;;5.25;4.05;;;26.80;96.70;;;;;;1938563;73;21130;-84
2023/06/15 11:45:23;;;;;;;4.42;4.00;;;26.90;98.70;;;;;;1931380;73;21168;-84
2023/06/15 11:48:15;;;;;;;4.50;3.45;;;27.10;97.60;;;;;;1916450;75;21106;-83
2023/06/15 11:51:09;;;;;;;5.47;3.25;;;27.10;93.30;;;;;;1916152;75;21126;-84
2023/06/15 11:54:02;;;;;;;5.08;3.05;;;27.10;93.70;;;;;;1939034;73;21194;-85
2023/06/15 11:56:53;;;;;;;5.15;3.25;;;27.00;92.80;;;;;;1916500;75;21117;-85
2023/06/15 11:59:45;;;;;;;11.55;3.67;;;27.10;92.40;;;;;;1916501;75;21116;-83
2023/06/15 12:02:37;;;;;;;4.35;3.85;;;27.00;92.40;;;;;;1924835;73;21573;-85
2023/06/15 12:05:29;;;;;;;7.40;3.45;;;27.10;94.60;;;;;;1924245;73;21140;-85
2023/06/15 12:08:21;;;;;;;4.58;3.12;;;27.20;92.90;;;;;;1916257;75;21125;-85
2023/06/15 12:13:56;;;;;;;4.67;3.42;;;27.30;93.90;;;;;;1966518;72;22233;-84
2023/06/15 12:16:52;;;;;;;5.05;3.00;;;27.50;92.50;;;;;;1916625;75;21811;-84
2023/06/15 12:19:44;;;;;;;3.95;3.55;;;27.40;91.30;;;;;;1916395;75;21110;-85
2023/06/15 12:22:41;;;;;;;8.55;3.62;;;27.30;92.10;;;;;;1933116;73;21089;-85
2023/06/15 12:25:46;;;;;;;5.78;3.80;;;27.20;92.90;;;;;;1916369;75;21222;-85
2023/06/15 12:28:37;;;;;;;7.08;3.22;;;27.20;92.80;;;;;;1916181;75;21083;-85
2023/06/15 12:31:36;;;;;;;5.08;3.40;;;27.20;92.70;;;;;;1916115;75;21052;-85
2023/06/15 12:34:29;;;;;;;3.72;3.33;;;27.20;93.20;;;;;;1916012;75;21139;-85
2023/06/15 12:37:22;;;;;;;4.15;3.15;;;27.00;93.90;;;;;;1916391;75;21225;-85
2023/06/15 12:40:17;;;;;;;5.50;3.17;;;27.20;93.40;;;;;;1880845;76;21566;-85
2023/06/15 12:43:09;;;;;;;7.25;3.75;;;27.30;93.10;;;;;;1917370;74;21304;-85
2023/06/15 12:46:00;;;;;;;10.08;3.98;;;27.30;93.10;;;;;;1919550;73;21697;-85
2023/06/15 12:48:52;;;;;;;6.03;3.67;;;27.20;92.90;;;;;;1916505;75;21186;-85
2023/06/15 12:51:46;;;;;;;6.25;3.62;;;27.10;92.00;;;;;;1916637;75;21149;-86
2023/06/15 12:54:37;;;;;;;7.25;3.42;;;27.20;92.60;;;;;;1916881;75;21097;-85
2023/06/15 12:57:29;;;;;;;5.47;3.42;;;27.40;91.40;;;;;;1915950;75;21206;-85
2023/06/15 13:00:27;;;;;;;10.50;3.67;;;27.40;91.10;;;;;;1915884;75;21155;-86
2023/06/15 13:03:19;;;;;;;5.67;3.20;;;27.30;91.00;;;;;;1915786;75;21125;-86
2023/06/15 13:06:11;;;;;;;4.92;3.35;;;27.40;90.90;;;;;;1916213;75;21158;-86
2023/06/15 13:09:03;;;;;;;3.62;3.33;;;27.60;90.50;;;;;;1916230;75;21102;-86
2023/06/15 13:11:55;;;;;;;5.90;3.45;;;27.70;90.50;;;;;;1916741;73;21098;-85
2023/06/15 13:14:47;;;;;;;5.62;3.58;;;27.80;90.60;;;;;;1921261;74;21114;-85
2023/06/15 13:17:40;;;;;;;5.00;3.45;;;27.80;90.50;;;;;;1945099;74;21502;-86
2023/06/15 13:20:32;;;;;;;3.58;3.27;;;27.80;90.00;;;;;;1925838;74;21212;-86
2023/06/15 13:23:23;;;;;;;4.58;3.75;;;27.70;89.70;;;;;;1933948;74;21118;-84
2023/06/15 13:29:00;;;;;;;8.38;4.30;;;27.80;90.30;;;;;;1942557;72;27964;-85
2023/06/15 13:31:55;;;;;;;7.33;3.72;;;28.10;89.30;;;;;;1939380;73;21101;-85
2023/06/15 13:34:47;;;;;;;5.33;3.98;;;27.90;89.20;;;;;;1916818;75;21139;-85
2023/06/15 13:37:41;;;;;;;7.80;3.55;;;28.00;89.30;;;;;;1916886;75;21110;-85
2023/06/15 13:40:32;;;;;;;3.98;3.58;;;28.20;88.40;;;;;;1916713;75;21094;-86
2023/06/15 13:43:24;;;;;;;5.28;3.55;;;28.30;88.40;;;;;;1916911;75;21066;-85
2023/06/15 13:46:19;;;;;;;4.08;3.50;;;28.20;86.90;;;;;;1925727;73;21054;-87
2023/06/15 13:49:11;;;;;;;5.17;3.35;;;28.20;88.10;;;;;;1927623;73;21594;-86
2023/06/15 13:52:03;;;;;;;5.85;3.10;;;28.40;87.50;;;;;;1930243;73;21122;-86
2023/06/15 13:54:55;;;;;;;5.55;3.72;;;28.60;86.70;;;;;;1916634;73;21047;-87
2023/06/15 13:57:48;;;;;;;3.98;3.58;;;28.90;85.60;;;;;;1917183;75;21651;-86
2023/06/15 14:00:41;;;;;;;3.27;2.92;;;29.10;85.20;;;;;;1880548;76;21188;-85
2023/06/15 14:03:33;;;;;;;6.00;3.22;;;29.30;84.50;;;;;;1880107;76;21110;-86
2023/06/15 14:06:25;;;;;;;6.65;3.65;;;29.30;84.50;;;;;;1916784;75;21122;-86
2023/06/15 14:09:29;;;;;;;2.95;2.67;;;29.40;82.60;;;;;;1916735;75;21173;-85
2023/06/15 14:12:27;;;;;;;5.22;3.70;;;29.70;82.30;;;;;;1916792;75;21131;-86
2023/06/15 14:15:19;;;;;;;4.37;3.45;;;29.60;81.60;;;;;;1926480;73;21147;-86
2023/06/15 14:18:11;;;;;;;5.67;3.95;;;29.50;82.70;;;;;;1916679;75;21173;-86
2023/06/15 14:21:02;;;;;;;4.85;3.45;;;29.20;82.10;;;;;;1916663;75;22085;-86
2023/06/15 14:26:37;;;;;;;8.70;3.70;;;29.60;80.80;;;;;;1948426;72;22319;-83
2023/06/15 14:29:28;;;;;;;5.30;3.60;;;29.60;79.50;;;;;;1889682;73;21146;-85
2023/06/15 14:32:19;;;;;;;3.77;3.47;;;29.50;80.50;;;;;;1899130;75;21141;-85
2023/06/15 14:35:11;;;;;;;4.22;3.60;;;30.00;80.40;;;;;;1906448;75;21557;-86
2023/06/15 14:38:06;;;;;;;6.12;3.60;;;30.10;79.90;;;;;;1883722;75;21102;-85
2023/06/15 14:40:57;;;;;;;5.35;3.27;;;30.20;78.20;;;;;;1905833;75;21187;-85
2023/06/15 14:43:49;;;;;;;5.08;3.42;;;30.00;77.70;;;;;;1901162;75;21087;-85
2023/06/15 14:46:42;;;;;;;4.08;3.40;;;30.20;77.50;;;;;;1904221;75;21126;-85
2023/06/15 14:49:33;;;;;;;5.22;3.90;;;30.10;76.20;;;;;;1883382;75;21168;-85
2023/06/15 14:52:27;;;;;;;6.47;3.47;;;30.30;76.70;;;;;;1905675;75;21460;-85
2023/06/15 14:55:19;;;;;;;3.80;3.40;;;30.50;75.70;;;;;;1903809;75;21143;-86
2023/06/15 14:58:11;;;;;;;5.85;3.47;;;30.40;74.90;;;;;;1883753;75;21107;-85
2023/06/15 15:01:03;;;;;;;8.73;3.30;;;30.50;75.20;;;;;;1892998;73;21124;-85
2023/06/15 15:03:55;;;;;;;4.50;3.40;;;30.50;73.90;;;;;;1894196;75;21131;-86
2023/06/15 15:06:47;;;;;;;5.42;3.67;;;30.60;74.60;;;;;;1916793;75;21639;-85
2023/06/15 15:09:38;;;;;;;3.60;3.17;;;31.00;73.80;;;;;;1901159;75;21107;-85
2023/06/15 15:12:30;;;;;;;3.25;2.90;;;30.80;72.90;;;;;;1883473;76;21168;-81
2023/06/15 15:15:21;;;;;;;3.60;3.30;;;31.10;72.40;;;;;;1901975;75;21139;-85
2023/06/15 15:18:14;;;;;;;3.83;3.40;;;31.20;71.60;;;;;;1905464;75;21177;-85
2023/06/15 15:21:07;;;;;;;3.45;3.15;;;31.20;71.60;;;;;;1901282;75;21128;-84
2023/06/15 15:23:59;;;;;;;4.90;3.22;;;31.50;71.20;;;;;;1916504;75;21325;-85
2023/06/15 15:26:50;;;;;;;4.75;3.15;;;31.60;70.70;;;;;;1894492;75;21094;-85
2023/06/15 15:29:42;;;;;;;3.90;3.35;;;31.70;70.40;;;;;;1891901;75;21103;-83
2023/06/15 15:32:35;;;;;;;4.90;3.55;;;32.30;69.70;;;;;;1901342;75;21175;-85
2023/06/15 15:35:27;;;;;;;3.67;3.33;;;32.10;67.60;;;;;;1883940;76;21110;-85
2023/06/15 15:38:19;;;;;;;3.92;3.40;;;32.00;68.00;;;;;;1905137;75;21138;-85
2023/06/15 15:41:11;;;;;;;3.80;3.40;;;31.70;68.40;;;;;;1905285;75;21145;-85
2023/06/15 15:44:03;;;;;;;4.80;3.40;;;31.50;69.50;;;;;;1903941;75;21102;-84
2023/06/15 15:46:54;;;;;;;6.37;3.45;;;32.00;67.90;;;;;;1883168;76;21176;-85
2023/06/15 15:49:46;;;;;;;3.87;3.37;;;32.30;67.60;;;;;;1905069;75;21150;-84
2023/06/15 15:52:37;;;;;;;4.12;3.42;;;32.30;67.50;;;;;;1904980;75;21113;-84
2023/06/15 15:55:30;;;;;;;4.60;3.72;;;31.50;67.80;;;;;;1905081;75;21055;-84
2023/06/15 15:58:22;;;;;;;4.58;3.55;;;30.60;70.30;;;;;;1883224;75;21161;-85
2023/06/15 16:01:14;;;;;;;4.58;3.50;;;31.20;68.50;;;;;;1890833;73;21231;-85
2023/06/15 16:04:06;;;;;;;4.05;3.52;;;30.80;69.90;;;;;;1890158;75;21059;-85
2023/06/15 16:06:57;;;;;;;6.67;3.35;;;30.00;71.90;;;;;;1891785;75;21106;-84
2023/06/15 16:09:49;;;;;;;5.03;3.40;;;30.80;71.10;;;;;;1902064;75;21076;-84
2023/06/15 16:15:21;;;;;;;4.28;3.33;;;30.90;69.50;;;;;;1944572;72;22255;-83
2023/06/15 16:20:52;;;;;;;4.85;3.80;;;29.70;71.00;;;;;;1958305;72;22292;-83
2023/06/15 16:23:44;;;;;;;4.67;3.37;;;29.80;71.80;;;;;;1916611;73;21193;-84
2023/06/15 16:26:35;;;;;;;4.67;3.33;;;30.90;70.30;;;;;;1915888;75;21464;-84
2023/06/15 16:29:27;;;;;;;4.12;3.70;;;31.70;67.30;;;;;;1915821;74;21161;-83
2023/06/15 16:32:19;;;;;;;3.72;3.42;;;32.40;66.20;;;;;;1916582;75;21132;-85
2023/06/15 16:35:11;;;;;;;5.03;4.62;;;32.60;64.90;;;;;;1916484;75;21055;-85
2023/06/15 16:38:03;;;;;;;3.92;3.30;;;33.60;64.90;;;;;;1916599;75;21549;-85
2023/06/15 16:40:54;;;;;;;3.55;3.25;;;34.20;63.40;;;;;;1916588;75;21479;-85
2023/06/15 16:43:46;;;;;;;3.20;2.90;;;33.50;63.40;;;;;;1916318;75;21134;-85
2023/06/15 16:46:38;;;;;;;3.75;3.40;;;33.70;62.80;;;;;;1929730;73;21583;-85
2023/06/15 16:49:29;;;;;;;3.77;3.17;;;33.40;62.40;;;;;;1919046;73;21172;-85
2023/06/15 16:55:06;;;;;;;3.87;3.37;;;31.60;63.30;;;;;;1946840;72;22677;-84
2023/06/15 16:57:58;;;;;;;4.37;3.30;;;31.40;64.50;;;;;;1891898;75;21453;-84
2023/06/15 17:00:50;;;;;;;4.95;3.50;;;31.60;64.00;;;;;;1887995;74;21133;-83
2023/06/15 17:03:42;;;;;;;3.60;3.30;;;30.80;65.70;;;;;;1882983;75;21623;-83
2023/06/15 17:06:33;;;;;;;3.92;3.52;;;30.70;67.20;;;;;;1904579;75;21114;-85
2023/06/15 17:09:26;;;;;;;4.47;3.15;;;31.80;66.50;;;;;;1886181;75;21110;-84
2023/06/15 17:14:58;;;;;;;4.90;3.35;;;32.90;62.90;;;;;;1940609;72;22269;-85
2023/06/15 17:17:50;;;;;;;4.80;3.60;;;33.00;61.90;;;;;;1872303;76;21175;-85
2023/06/15 17:20:41;;;;;;;3.95;3.25;;;33.40;60.70;;;;;;1884065;75;21127;-80
2023/06/15 17:23:35;;;;;;;4.47;3.00;;;33.30;59.70;;;;;;1882111;75;21142;-80
2023/06/15 17:26:26;;;;;;;3.08;2.87;;;32.70;59.00;;;;;;1890227;75;21180;-80
2023/06/15 17:29:17;;;;;;;4.05;3.55;;;32.50;59.70;;;;;;1873620;75;21746;-80
2023/06/15 17:34:50;;;;;;;3.80;3.45;;;30.20;61.10;;;;;;1943870;72;22317;-80
2023/06/15 17:37:41;;;;;;;4.40;3.40;;;29.60;62.80;;;;;;1920121;73;21547;-80
2023/06/15 17:40:33;;;;;;;3.83;3.45;;;29.90;62.10;;;;;;1924347;73;21106;-80
2023/06/15 17:46:05;;;;;;;3.72;3.33;;;30.30;62.90;;;;;;1934914;72;22261;-80